createdAt,value
2023-03-05T00:00:27.698Z,62.56
2023-03-05T00:02:54.307Z,62.30
2023-03-05T00:05:20.883Z,62.49
2023-03-05T00:07:48.938Z,62.45
2023-03-05T00:10:15.839Z,62.59
2023-03-05T00:12:42.375Z,62.53
2023-03-05T00:15:09.707Z,62.18
2023-03-05T00:17:36.388Z,62.69
2023-03-05T00:20:03.310Z,62.68
2023-03-05T00:22:29.862Z,62.41
2023-03-05T00:24:56.504Z,62.53
2023-03-05T00:27:23.107Z,62.68
2023-03-05T00:29:49.708Z,62.17
2023-03-05T00:32:16.452Z,62.57
2023-03-05T00:34:43.513Z,62.14
2023-03-05T00:37:10.212Z,62.46
2023-03-05T00:39:36.851Z,61.94
2023-03-05T00:42:03.741Z,62.06
2023-03-05T00:44:31.344Z,62.13
2023-03-05T00:46:57.941Z,62.20
2023-03-05T00:49:24.592Z,62.30
2023-03-05T00:51:51.247Z,62.09
2023-03-05T00:54:18.320Z,62.55
2023-03-05T00:56:45.119Z,62.07
2023-03-05T00:59:11.665Z,62.07
2023-03-05T01:01:38.405Z,61.90
2023-03-05T01:04:05.113Z,62.44
2023-03-05T01:06:31.717Z,63.17
2023-03-05T01:08:59.503Z,63.11
2023-03-05T01:11:26.395Z,63.50
2023-03-05T01:13:52.973Z,63.01
2023-03-05T01:16:19.575Z,63.28
2023-03-05T01:18:46.235Z,63.29
2023-03-05T01:21:12.856Z,62.97
2023-03-05T01:23:39.459Z,63.31
2023-03-05T01:26:06.634Z,62.65
2023-03-05T01:28:33.217Z,62.17
2023-03-05T01:30:59.792Z,63.26
2023-03-05T01:33:26.523Z,63.04
2023-03-05T01:35:53.113Z,62.54
2023-03-05T01:38:19.816Z,62.85
2023-03-05T01:40:46.424Z,62.72
2023-03-05T01:43:12.930Z,62.49
2023-03-05T01:46:00.353Z,63.40
2023-03-05T01:48:27.707Z,62.76
2023-03-05T01:50:54.455Z,63.30
2023-03-05T01:53:21.064Z,63.47
2023-03-05T01:55:47.653Z,63.40
2023-03-05T01:58:14.381Z,63.26
2023-03-05T02:00:48.420Z,62.91
2023-03-05T02:03:15.312Z,63.41
2023-03-05T02:05:45.561Z,63.67
2023-03-05T02:08:18.365Z,63.76
2023-03-05T02:10:52.122Z,63.83
2023-03-05T02:13:31.637Z,63.76
2023-03-05T02:16:00.375Z,63.99
2023-03-05T02:18:27.579Z,63.69
2023-03-05T02:20:56.868Z,64.18
2023-03-05T02:23:26.232Z,64.11
2023-03-05T02:25:53.805Z,63.88
2023-03-05T02:28:25.937Z,63.37
2023-03-05T02:30:52.827Z,63.31
2023-03-05T02:33:20.803Z,63.43
2023-03-05T02:35:47.911Z,63.12
2023-03-05T02:38:17.532Z,63.55
2023-03-05T02:40:44.246Z,63.77
2023-03-05T02:43:11.148Z,63.12
2023-03-05T02:45:38.656Z,63.30
2023-03-05T02:48:05.807Z,63.76
2023-03-05T02:50:33.156Z,64.02
2023-03-05T02:52:59.753Z,63.55
2023-03-05T02:55:26.345Z,63.16
2023-03-05T02:57:52.980Z,63.21
2023-03-05T03:00:19.766Z,63.64
2023-03-05T03:02:46.413Z,63.42
2023-03-05T03:05:12.980Z,63.92
2023-03-05T03:07:39.610Z,63.18
2023-03-05T03:10:06.821Z,63.79
2023-03-05T03:12:40.644Z,63.42
2023-03-05T03:15:09.362Z,63.89
2023-03-05T03:17:37.391Z,64.26
2023-03-05T03:20:06.293Z,64.38
2023-03-05T03:22:33.072Z,63.93
2023-03-05T03:25:00.604Z,64.29
2023-03-05T03:27:27.200Z,64.25
2023-03-05T03:29:53.798Z,64.69
2023-03-05T03:32:20.385Z,64.65
2023-03-05T03:34:48.169Z,65.04
2023-03-05T03:37:15.165Z,64.87
2023-03-05T03:39:41.734Z,64.83
2023-03-05T03:42:08.286Z,64.84
2023-03-05T03:44:34.919Z,64.74
2023-03-05T03:47:01.447Z,64.77
2023-03-05T03:49:28.008Z,64.76
2023-03-05T03:51:55.507Z,65.12
2023-03-05T03:54:22.695Z,64.68
2023-03-05T03:56:49.275Z,64.43
2023-03-05T03:59:15.892Z,64.36
2023-03-05T04:01:42.863Z,64.31
2023-03-05T04:04:11.748Z,64.47
2023-03-05T04:06:38.804Z,64.59
2023-03-05T04:09:06.276Z,64.68
2023-03-05T04:11:32.838Z,64.45
2023-03-05T04:13:59.420Z,63.98
2023-03-05T04:16:26.423Z,64.90
2023-03-05T04:18:53.282Z,64.66
2023-03-05T04:21:19.881Z,65.56
2023-03-05T04:23:46.464Z,65.42
2023-03-05T04:26:13.047Z,66.20
2023-03-05T04:28:39.787Z,65.74
2023-03-05T04:31:06.471Z,66.18
2023-03-05T04:33:33.842Z,66.30
2023-03-05T04:36:00.517Z,66.50
2023-03-05T04:38:27.117Z,66.51
2023-03-05T04:40:53.690Z,67.32
2023-03-05T04:43:20.310Z,66.72
2023-03-05T04:45:46.890Z,66.46
2023-03-05T04:48:13.686Z,67.12
2023-03-05T04:50:40.555Z,66.69
2023-03-05T04:53:07.167Z,66.80
2023-03-05T04:55:33.925Z,66.95
2023-03-05T04:58:00.498Z,66.85
2023-03-05T05:00:27.109Z,67.48
2023-03-05T05:02:53.889Z,67.04
2023-03-05T05:05:24.378Z,67.43
2023-03-05T05:07:55.211Z,67.08
2023-03-05T05:10:22.149Z,66.74
2023-03-05T05:12:48.831Z,66.51
2023-03-05T05:15:15.496Z,66.31
2023-03-05T05:17:42.141Z,66.36
2023-03-05T05:20:11.502Z,66.41
2023-03-05T05:22:38.354Z,66.24
2023-03-05T05:25:05.295Z,66.61
2023-03-05T05:27:31.961Z,66.45
2023-03-05T05:29:58.672Z,66.63
2023-03-05T05:32:25.766Z,65.83
2023-03-05T05:34:56.712Z,65.42
2023-03-05T05:37:23.949Z,65.59
2023-03-05T05:39:51.048Z,65.53
2023-03-05T05:42:19.639Z,65.63
2023-03-05T05:44:47.602Z,65.88
2023-03-05T05:47:15.646Z,65.69
2023-03-05T05:49:42.263Z,65.30
2023-03-05T05:52:09.152Z,65.63
2023-03-05T05:54:35.680Z,65.66
2023-03-05T05:57:02.345Z,65.93
2023-03-05T05:59:28.989Z,65.78
2023-03-05T06:01:55.565Z,66.25
2023-03-05T06:04:22.820Z,66.24
2023-03-05T06:06:49.629Z,65.32
2023-03-05T06:09:16.446Z,65.06
2023-03-05T06:11:43.102Z,65.00
2023-03-05T06:14:11.938Z,64.74
2023-03-05T06:16:39.434Z,64.58
2023-03-05T06:19:07.368Z,64.71
2023-03-05T06:21:34.090Z,64.55
2023-03-05T06:24:01.137Z,64.16
2023-03-05T06:26:28.203Z,63.78
2023-03-05T06:28:54.966Z,63.81
2023-03-05T06:31:25.729Z,63.76
2023-03-05T06:33:57.435Z,63.69
2023-03-05T06:36:27.705Z,63.18
2023-03-05T06:38:55.149Z,63.32
2023-03-05T06:41:25.648Z,63.70
2023-03-05T06:43:52.728Z,64.12
2023-03-05T06:46:22.568Z,63.67
2023-03-05T06:48:49.360Z,63.34
2023-03-05T06:51:25.370Z,63.24
2023-03-05T06:53:53.197Z,63.65
2023-03-05T06:56:20.375Z,63.98
2023-03-05T06:58:49.831Z,63.38
2023-03-05T07:01:16.657Z,63.82
2023-03-05T07:03:44.083Z,64.21
2023-03-05T07:06:13.710Z,64.31
2023-03-05T07:08:40.321Z,64.24
2023-03-05T07:11:15.065Z,63.78
2023-03-05T07:13:42.211Z,63.54
2023-03-05T07:16:12.294Z,63.49
2023-03-05T07:18:38.922Z,64.05
2023-03-05T07:21:07.255Z,63.15
2023-03-05T07:23:34.923Z,63.59
2023-03-05T07:26:02.619Z,62.90
2023-03-05T07:28:29.184Z,63.38
2023-03-05T07:31:01.226Z,63.89
2023-03-05T07:33:28.370Z,63.30
2023-03-05T07:35:55.169Z,62.86
2023-03-05T07:38:22.857Z,62.65
2023-03-05T07:40:50.445Z,63.78
2023-03-05T07:43:17.797Z,63.92
2023-03-05T07:45:45.915Z,62.98
2023-03-05T07:48:15.523Z,63.44
2023-03-05T07:50:42.132Z,62.78
2023-03-05T07:53:09.974Z,63.42
2023-03-05T07:55:45.589Z,62.61
2023-03-05T07:58:13.885Z,61.64
2023-03-05T08:00:40.937Z,61.94
2023-03-05T08:03:07.531Z,61.59
2023-03-05T08:05:34.272Z,61.94
2023-03-05T08:08:00.944Z,62.71
2023-03-05T08:10:27.585Z,62.49
2023-03-05T08:12:54.157Z,62.40
2023-03-05T08:15:20.956Z,61.43
2023-03-05T08:17:47.572Z,61.43
2023-03-05T08:20:14.286Z,62.03
2023-03-05T08:22:40.950Z,62.25
2023-03-05T08:25:08.424Z,61.99
2023-03-05T08:27:38.936Z,62.04
2023-03-05T08:30:06.496Z,61.50
2023-03-05T08:32:33.329Z,61.77
2023-03-05T08:35:00.002Z,62.30
2023-03-05T08:37:26.620Z,60.97
2023-03-05T08:39:53.207Z,61.06
2023-03-05T08:42:19.826Z,61.66
2023-03-05T08:44:46.372Z,60.78
2023-03-05T08:47:13.001Z,60.46
2023-03-05T08:49:39.649Z,60.43
2023-03-05T08:52:06.612Z,59.92
2023-03-05T08:54:33.902Z,60.22
2023-03-05T08:57:00.555Z,60.32
2023-03-05T08:59:27.154Z,61.02
2023-03-05T09:01:53.775Z,61.26
2023-03-05T09:04:20.519Z,60.85
2023-03-05T09:06:47.104Z,61.39
2023-03-05T09:09:14.178Z,61.47
2023-03-05T09:11:40.767Z,61.51
2023-03-05T09:14:07.612Z,60.88
2023-03-05T09:16:36.138Z,60.74
2023-03-05T09:19:02.683Z,59.96
2023-03-05T09:21:29.260Z,60.48
2023-03-05T09:23:59.630Z,60.08
2023-03-05T09:26:26.696Z,59.70
2023-03-05T09:28:53.517Z,59.83
2023-03-05T09:31:20.343Z,60.51
2023-03-05T09:33:48.958Z,61.03
2023-03-05T09:36:27.598Z,61.43
2023-03-05T09:38:54.730Z,61.59
2023-03-05T09:42:00.012Z,61.23
2023-03-05T09:45:03.565Z,61.44
2023-03-05T09:47:38.886Z,60.85
2023-03-05T09:50:21.742Z,61.00
2023-03-05T09:52:57.721Z,60.44
2023-03-05T09:55:35.592Z,60.06
2023-03-05T09:58:12.788Z,60.01
2023-03-05T10:00:45.256Z,59.37
2023-03-05T10:03:37.381Z,60.16
2023-03-05T10:06:29.240Z,58.54
2023-03-05T10:09:04.433Z,57.68
2023-03-05T10:11:36.518Z,56.96
2023-03-05T10:14:03.999Z,57.34
2023-03-05T10:16:46.091Z,57.30
2023-03-05T10:19:44.948Z,57.55
2023-03-05T10:22:31.744Z,56.44
2023-03-05T10:25:15.073Z,57.47
2023-03-05T10:27:57.045Z,55.28
2023-03-05T10:30:51.281Z,55.90
2023-03-05T10:33:39.260Z,56.33
2023-03-05T10:36:15.242Z,56.26
2023-03-05T10:38:44.735Z,55.47
2023-03-05T10:41:14.264Z,56.13
2023-03-05T10:43:53.176Z,54.98
2023-03-05T10:46:24.334Z,54.38
2023-03-05T10:48:54.701Z,57.48
2023-03-05T10:51:23.216Z,54.63
2023-03-05T10:53:56.076Z,52.38
2023-03-05T10:56:25.028Z,53.42
2023-03-05T10:58:52.844Z,51.03
2023-03-05T11:01:28.701Z,48.93
2023-03-05T11:04:03.922Z,49.99
2023-03-05T11:06:33.058Z,49.27
2023-03-05T11:09:38.142Z,48.85
2023-03-05T11:12:35.830Z,50.17
2023-03-05T11:15:14.554Z,50.32
2023-03-05T11:18:03.407Z,49.76
2023-03-05T11:20:35.596Z,49.69
2023-03-05T11:23:15.336Z,49.74
2023-03-05T11:26:08.041Z,51.36
2023-03-05T11:28:56.529Z,51.17
2023-03-05T11:31:25.948Z,50.50
2023-03-05T11:34:23.404Z,51.47
2023-03-05T11:36:58.560Z,50.43
2023-03-05T11:39:26.178Z,49.66
2023-03-05T11:41:58.033Z,50.38
2023-03-05T11:44:29.758Z,49.31
2023-03-05T11:47:20.276Z,48.39
2023-03-05T11:49:50.876Z,48.60
2023-03-05T11:52:23.347Z,49.75
2023-03-05T11:55:28.307Z,50.02
2023-03-05T11:58:07.053Z,48.18
2023-03-05T12:00:37.040Z,42.95
2023-03-05T12:03:08.184Z,42.66
2023-03-05T12:05:37.384Z,43.44
2023-03-05T12:08:05.838Z,44.87
2023-03-05T12:10:32.461Z,47.12
2023-03-05T12:13:08.008Z,43.35
2023-03-05T12:15:41.198Z,44.76
2023-03-05T12:18:13.780Z,43.97
2023-03-05T12:21:02.143Z,43.00
2023-03-05T12:23:28.775Z,41.18
2023-03-05T12:26:00.087Z,41.93
2023-03-05T12:28:29.451Z,43.08
2023-03-05T12:31:06.704Z,42.07
2023-03-05T12:33:35.408Z,41.39
2023-03-05T12:36:22.833Z,44.15
2023-03-05T12:38:54.189Z,41.15
2023-03-05T12:41:24.937Z,39.47
2023-03-05T12:44:05.113Z,38.85
2023-03-05T12:47:16.772Z,38.72
2023-03-05T12:49:45.577Z,39.23
2023-03-05T12:52:23.460Z,42.94
2023-03-05T12:55:17.599Z,39.81
2023-03-05T12:57:45.737Z,37.01
2023-03-05T13:00:23.470Z,35.69
2023-03-05T13:02:57.974Z,34.10
2023-03-05T13:05:33.119Z,35.15
2023-03-05T13:08:25.371Z,35.63
2023-03-05T13:11:08.460Z,36.47
2023-03-05T13:13:38.212Z,37.00
2023-03-05T13:16:05.462Z,37.58
2023-03-05T13:18:33.160Z,38.41
2023-03-05T13:21:08.457Z,39.14
2023-03-05T13:23:35.740Z,39.85
2023-03-05T13:26:19.171Z,40.75
2023-03-05T13:29:19.374Z,40.87
2023-03-05T13:31:47.834Z,40.98
2023-03-05T13:34:47.104Z,41.38
2023-03-05T13:37:20.048Z,41.45
2023-03-05T13:40:23.628Z,42.00
2023-03-05T13:42:51.048Z,43.20
2023-03-05T13:45:29.429Z,42.45
2023-03-05T13:48:01.897Z,42.66
2023-03-05T13:50:33.346Z,43.38
2023-03-05T13:53:23.780Z,43.12
2023-03-05T13:55:53.092Z,42.37
2023-03-05T13:58:49.514Z,41.52
2023-03-05T14:01:30.604Z,39.49
2023-03-05T14:04:03.278Z,39.06
2023-03-05T14:06:31.102Z,39.31
2023-03-05T14:09:07.460Z,39.59
2023-03-05T14:11:34.916Z,40.29
2023-03-05T14:14:17.863Z,40.00
2023-03-05T14:16:44.616Z,41.34
2023-03-05T14:19:35.834Z,42.25
2023-03-05T14:22:04.159Z,41.98
2023-03-05T14:24:31.453Z,42.38
2023-03-05T14:27:14.052Z,43.17
2023-03-05T14:29:46.516Z,43.00
2023-03-05T14:32:36.027Z,43.58
2023-03-05T14:35:05.904Z,43.97
2023-03-05T14:37:39.458Z,44.52
2023-03-05T14:40:19.177Z,44.95
2023-03-05T14:42:56.516Z,45.66
2023-03-05T14:45:25.936Z,45.00
2023-03-05T14:47:55.141Z,45.49
2023-03-05T14:50:28.007Z,46.10
2023-03-05T14:53:01.635Z,46.80
2023-03-05T14:55:31.845Z,46.26
2023-03-05T14:58:12.407Z,46.48
2023-03-05T15:00:39.476Z,46.14
2023-03-05T15:03:06.049Z,46.16
2023-03-05T15:05:33.377Z,46.57
2023-03-05T15:08:00.695Z,46.17
2023-03-05T15:10:27.337Z,46.49
2023-03-05T15:12:53.910Z,47.03
2023-03-05T15:15:21.674Z,47.68
2023-03-05T15:17:52.260Z,47.36
2023-03-05T15:20:27.701Z,47.79
2023-03-05T15:22:54.751Z,47.79
2023-03-05T15:25:22.748Z,48.49
2023-03-05T15:27:51.026Z,48.43
2023-03-05T15:30:29.886Z,48.18
2023-03-05T15:32:58.163Z,48.79
2023-03-05T15:35:25.457Z,48.83
2023-03-05T15:37:52.165Z,49.16
2023-03-05T15:40:19.552Z,49.19
2023-03-05T15:42:46.417Z,49.00
2023-03-05T15:45:13.680Z,49.13
2023-03-05T15:47:40.242Z,49.41
2023-03-05T15:50:08.502Z,49.08
2023-03-05T15:52:35.162Z,49.29
2023-03-05T15:55:02.281Z,49.92
2023-03-05T15:57:31.442Z,49.81
2023-03-05T15:59:57.974Z,50.11
2023-03-05T16:02:25.103Z,50.64
2023-03-05T16:04:51.654Z,51.06
2023-03-05T16:07:18.710Z,50.67
2023-03-05T16:09:48.956Z,51.40
2023-03-05T16:12:20.145Z,51.43
2023-03-05T16:14:48.488Z,51.34
2023-03-05T16:17:16.497Z,51.07
2023-03-05T16:19:46.936Z,50.99
2023-03-05T16:22:13.897Z,51.29
2023-03-05T16:24:40.907Z,50.69
2023-03-05T16:27:07.688Z,51.22
2023-03-05T16:29:34.537Z,51.57
2023-03-05T16:32:05.491Z,51.70
2023-03-05T16:34:34.407Z,52.44
2023-03-05T16:37:04.414Z,53.04
2023-03-05T16:39:31.266Z,53.08
2023-03-05T16:41:57.826Z,52.76
2023-03-05T16:44:24.910Z,52.21
2023-03-05T16:46:54.042Z,52.01
2023-03-05T16:49:21.474Z,51.38
2023-03-05T16:51:48.644Z,51.48
2023-03-05T16:54:15.273Z,50.91
2023-03-05T16:56:41.877Z,51.73
2023-03-05T16:59:08.467Z,51.14
2023-03-05T17:01:35.082Z,51.68
2023-03-05T17:04:02.146Z,51.01
2023-03-05T17:06:30.943Z,50.98
2023-03-05T17:08:58.777Z,51.48
2023-03-05T17:11:25.944Z,51.43
2023-03-05T17:13:52.990Z,51.06
2023-03-05T17:16:20.134Z,51.25
2023-03-05T17:18:48.080Z,50.88
2023-03-05T17:21:15.588Z,51.08
2023-03-05T17:23:42.783Z,51.14
2023-03-05T17:26:16.427Z,51.57
2023-03-05T17:28:43.939Z,51.53
2023-03-05T17:31:10.945Z,51.56
2023-03-05T17:33:38.329Z,51.90
2023-03-05T17:36:05.583Z,51.83
2023-03-05T17:38:32.420Z,52.19
2023-03-05T17:40:58.991Z,53.09
2023-03-05T17:43:25.630Z,52.61
2023-03-05T17:45:52.292Z,53.16
2023-03-05T17:48:18.950Z,52.64
2023-03-05T17:50:46.265Z,53.52
2023-03-05T17:53:12.922Z,53.30
2023-03-05T17:55:40.292Z,53.62
2023-03-05T17:58:07.142Z,53.77
2023-03-05T18:00:34.804Z,54.00
2023-03-05T18:03:04.189Z,54.22
2023-03-05T18:05:31.800Z,54.21
2023-03-05T18:08:00.091Z,54.24
2023-03-05T18:10:27.987Z,54.60
2023-03-05T18:12:55.044Z,54.89
2023-03-05T18:15:23.603Z,54.86
2023-03-05T18:17:50.773Z,54.95
2023-03-05T18:20:33.616Z,54.33
2023-03-05T18:23:04.822Z,54.64
2023-03-05T18:25:31.906Z,54.68
2023-03-05T18:28:06.367Z,54.99
2023-03-05T18:30:33.462Z,54.47
2023-03-05T18:33:00.919Z,54.75
2023-03-05T18:35:29.304Z,54.92
2023-03-05T18:37:56.293Z,55.39
2023-03-05T18:40:25.354Z,54.46
2023-03-05T18:42:52.092Z,54.82
2023-03-05T18:45:20.946Z,54.73
2023-03-05T18:47:48.008Z,54.34
2023-03-05T18:50:18.618Z,54.12
2023-03-05T18:52:46.103Z,54.22
2023-03-05T18:55:16.685Z,54.33
2023-03-05T18:57:43.261Z,54.07
2023-03-05T19:00:14.818Z,54.23
2023-03-05T19:02:41.445Z,54.60
2023-03-05T19:05:09.102Z,53.88
2023-03-05T19:07:37.930Z,54.29
2023-03-05T19:10:10.016Z,54.36
2023-03-05T19:13:39.946Z,54.22
2023-03-05T19:16:33.790Z,54.87
2023-03-05T19:19:22.634Z,54.59
2023-03-05T19:21:53.589Z,54.56
2023-03-05T19:24:22.848Z,54.12
2023-03-05T19:26:50.420Z,55.04
2023-03-05T19:29:16.961Z,55.42
2023-03-05T19:31:43.590Z,55.65
2023-03-05T19:34:10.504Z,54.99
2023-03-05T19:36:37.169Z,55.01
2023-03-05T19:39:05.858Z,54.95
2023-03-05T19:41:33.216Z,55.27
2023-03-05T19:43:59.814Z,55.60
2023-03-05T19:46:26.529Z,55.19
2023-03-05T19:48:53.420Z,55.51
2023-03-05T19:51:22.543Z,55.67
2023-03-05T19:53:49.242Z,55.03
2023-03-05T19:56:16.595Z,55.38
2023-03-05T19:58:48.835Z,55.72
2023-03-05T20:01:21.165Z,55.99
2023-03-05T20:03:52.827Z,56.22
2023-03-05T20:06:20.226Z,57.04
2023-03-05T20:08:47.456Z,57.37
2023-03-05T20:11:16.208Z,56.83
2023-03-05T20:13:43.502Z,57.83
2023-03-05T20:16:15.916Z,59.25
2023-03-05T20:18:42.767Z,60.28
2023-03-05T20:21:09.417Z,59.34
2023-03-05T20:23:36.013Z,58.42
2023-03-05T20:26:05.349Z,58.52
2023-03-05T20:28:32.912Z,58.48
2023-03-05T20:31:01.060Z,58.08
2023-03-05T20:33:28.928Z,58.86
2023-03-05T20:35:56.556Z,61.03
2023-03-05T20:38:29.549Z,60.69
2023-03-05T20:40:56.155Z,60.84
2023-03-05T20:43:23.553Z,61.07
2023-03-05T20:45:50.690Z,60.21
2023-03-05T20:48:17.520Z,60.59
2023-03-05T20:50:44.350Z,60.42
2023-03-05T20:53:10.939Z,60.15
2023-03-05T20:55:37.540Z,60.32
2023-03-05T20:58:04.104Z,60.19
2023-03-05T21:00:31.419Z,60.95
2023-03-05T21:02:58.044Z,60.51
2023-03-05T21:05:26.830Z,60.28
2023-03-05T21:07:53.747Z,60.39
2023-03-05T21:10:21.009Z,60.77
2023-03-05T21:12:49.476Z,60.91
2023-03-05T21:15:20.677Z,61.25
2023-03-05T21:17:47.433Z,60.96
2023-03-05T21:20:17.947Z,61.02
2023-03-05T21:22:44.486Z,61.89
2023-03-05T21:25:21.708Z,61.76
2023-03-05T21:27:50.698Z,62.05
2023-03-05T21:30:18.763Z,61.64
2023-03-05T21:32:45.799Z,62.60
2023-03-05T21:35:16.925Z,61.96
2023-03-05T21:37:43.741Z,62.74
2023-03-05T21:40:16.087Z,62.69
2023-03-05T21:42:46.545Z,62.71
2023-03-05T21:45:17.087Z,63.63
2023-03-05T21:47:44.208Z,63.45
2023-03-05T21:50:13.066Z,62.94
2023-03-05T21:52:40.496Z,62.90
2023-03-05T21:55:07.723Z,63.15
2023-03-05T21:57:34.317Z,63.86
2023-03-05T22:00:00.999Z,63.86
2023-03-05T22:02:28.437Z,64.42
2023-03-05T22:04:55.082Z,64.54
2023-03-05T22:07:21.813Z,64.51
2023-03-05T22:09:54.649Z,64.54
2023-03-05T22:13:12.422Z,64.11
2023-03-05T22:15:50.407Z,64.16
2023-03-05T22:18:20.242Z,64.17
2023-03-05T22:20:47.357Z,64.37
2023-03-05T22:23:14.809Z,64.47
2023-03-05T22:25:42.167Z,64.18
2023-03-05T22:28:10.590Z,64.40
2023-03-05T22:30:43.420Z,64.11
2023-03-05T22:33:10.016Z,64.07
2023-03-05T22:35:39.034Z,63.83
2023-03-05T22:38:05.884Z,64.05
2023-03-05T22:40:32.468Z,64.36
2023-03-05T22:42:58.998Z,64.56
2023-03-05T22:45:25.604Z,64.79
2023-03-05T22:47:52.173Z,64.89
2023-03-05T22:50:18.886Z,65.04
2023-03-05T22:52:45.609Z,64.97
2023-03-05T22:55:16.562Z,64.92
2023-03-05T22:57:44.490Z,65.11
2023-03-05T23:00:23.748Z,65.09
2023-03-05T23:02:51.337Z,64.96
2023-03-05T23:05:18.533Z,64.95
2023-03-05T23:07:45.996Z,65.20
2023-03-05T23:10:19.099Z,65.83
2023-03-05T23:12:49.460Z,65.90
2023-03-05T23:15:28.748Z,66.40
2023-03-05T23:17:55.720Z,66.83
2023-03-05T23:20:25.316Z,67.03
2023-03-05T23:22:53.641Z,67.21
2023-03-05T23:25:20.749Z,67.18
2023-03-05T23:27:48.103Z,66.87
2023-03-05T23:30:22.812Z,66.86
2023-03-05T23:32:57.718Z,66.30
2023-03-05T23:35:34.152Z,66.57
2023-03-05T23:38:02.159Z,67.08
2023-03-05T23:40:31.680Z,66.81
2023-03-05T23:42:58.680Z,67.13
2023-03-05T23:45:26.371Z,66.98
2023-03-05T23:47:53.088Z,67.02
2023-03-05T23:50:28.609Z,66.97
2023-03-05T23:52:55.617Z,67.29
2023-03-05T23:55:28.431Z,66.88
2023-03-05T23:57:55.875Z,67.31
